createdAt,value
2022-07-31T00:02:30.881Z,16.50
2022-07-31T00:05:19.294Z,16.40
2022-07-31T00:08:06.835Z,16.40
2022-07-31T00:10:54.189Z,16.40
2022-07-31T00:13:57.158Z,16.50
2022-07-31T00:16:45.629Z,16.60
2022-07-31T00:19:32.845Z,16.80
2022-07-31T00:22:21.524Z,16.90
2022-07-31T00:25:10.370Z,16.90
2022-07-31T00:27:57.585Z,16.90
2022-07-31T00:30:44.834Z,16.70
2022-07-31T00:33:33.256Z,16.40
2022-07-31T00:36:20.581Z,16.70
2022-07-31T00:39:18.526Z,16.70
2022-07-31T00:42:07.345Z,16.30
2022-07-31T00:44:54.814Z,16.20
2022-07-31T00:47:42.423Z,16.10
2022-07-31T00:50:29.922Z,16.30
2022-07-31T00:53:17.433Z,16.40
2022-07-31T00:56:06.544Z,16.50
2022-07-31T00:58:55.171Z,16.60
2022-07-31T01:01:42.306Z,16.60
2022-07-31T01:04:31.133Z,16.40
2022-07-31T01:07:18.817Z,16.30
2022-07-31T01:10:10.435Z,16.50
2022-07-31T01:13:05.805Z,16.50
2022-07-31T01:15:54.386Z,16.50
2022-07-31T01:18:43.209Z,16.50
2022-07-31T01:21:37.171Z,16.50
2022-07-31T01:24:42.070Z,16.40
2022-07-31T01:28:03.364Z,16.40
2022-07-31T01:31:17.294Z,16.40
2022-07-31T01:34:10.381Z,16.20
2022-07-31T01:37:03.926Z,15.90
2022-07-31T01:39:55.603Z,16.10
2022-07-31T01:42:48.732Z,16.20
2022-07-31T01:45:38.452Z,16.10
2022-07-31T01:48:28.643Z,15.80
2022-07-31T01:51:18.231Z,16.00
2022-07-31T01:54:05.870Z,16.00
2022-07-31T01:56:55.058Z,16.10
2022-07-31T01:59:44.931Z,15.80
2022-07-31T02:02:55.496Z,15.70
2022-07-31T02:05:45.137Z,15.70
2022-07-31T02:08:34.647Z,15.80
2022-07-31T02:11:22.522Z,15.90
2022-07-31T02:14:10.547Z,15.70
2022-07-31T02:16:59.486Z,15.60
2022-07-31T02:20:07.229Z,15.70
2022-07-31T02:22:56.337Z,15.80
2022-07-31T02:25:44.345Z,15.90
2022-07-31T02:28:32.745Z,15.80
2022-07-31T02:31:22.915Z,15.90
2022-07-31T02:34:10.076Z,15.90
2022-07-31T02:36:58.277Z,15.90
2022-07-31T02:39:47.672Z,15.60
2022-07-31T02:42:35.839Z,15.40
2022-07-31T02:45:24.121Z,15.50
2022-07-31T02:48:11.877Z,15.60
2022-07-31T02:51:04.201Z,15.50
2022-07-31T02:53:52.203Z,15.20
2022-07-31T02:56:44.005Z,15.30
2022-07-31T02:59:32.050Z,15.40
2022-07-31T03:02:20.219Z,15.50
2022-07-31T03:05:08.434Z,15.40
2022-07-31T03:07:55.673Z,15.20
2022-07-31T03:10:42.995Z,15.40
2022-07-31T03:13:34.913Z,15.40
2022-07-31T03:16:23.715Z,15.20
2022-07-31T03:19:12.214Z,15.40
2022-07-31T03:22:01.279Z,15.40
2022-07-31T03:24:48.595Z,15.40
2022-07-31T03:27:40.082Z,15.40
2022-07-31T03:30:28.846Z,15.40
2022-07-31T03:33:17.494Z,15.50
2022-07-31T03:36:05.484Z,15.40
2022-07-31T03:38:52.883Z,15.40
2022-07-31T03:41:54.310Z,15.20
2022-07-31T03:44:42.452Z,15.40
2022-07-31T03:47:31.663Z,15.30
2022-07-31T03:50:19.394Z,15.40
2022-07-31T03:53:08.375Z,15.40
2022-07-31T03:56:06.067Z,15.50
2022-07-31T03:58:54.402Z,15.50
2022-07-31T04:01:57.533Z,15.50
2022-07-31T04:05:01.142Z,15.60
2022-07-31T04:07:48.643Z,15.60
2022-07-31T04:10:39.011Z,15.60
2022-07-31T04:13:28.473Z,15.60
2022-07-31T04:16:15.707Z,15.40
2022-07-31T04:19:02.889Z,15.30
2022-07-31T04:21:51.667Z,15.40
2022-07-31T04:24:38.932Z,15.70
2022-07-31T04:27:26.451Z,15.80
2022-07-31T04:30:14.086Z,15.90
2022-07-31T04:33:01.598Z,15.90
2022-07-31T04:35:48.865Z,15.90
2022-07-31T04:38:37.558Z,15.90
2022-07-31T04:41:24.949Z,16.10
2022-07-31T04:44:12.398Z,16.10
2022-07-31T04:47:11.643Z,16.20
2022-07-31T04:50:03.608Z,16.30
2022-07-31T04:52:51.238Z,16.60
2022-07-31T04:55:39.813Z,16.60
2022-07-31T04:58:26.911Z,16.70
2022-07-31T05:01:15.035Z,16.90
2022-07-31T05:04:03.858Z,17.00
2022-07-31T05:06:52.835Z,17.10
2022-07-31T05:09:39.957Z,17.10
2022-07-31T05:12:29.720Z,17.30
2022-07-31T05:15:17.252Z,17.40
2022-07-31T05:18:04.544Z,17.50
2022-07-31T05:21:10.253Z,17.70
2022-07-31T05:24:09.370Z,17.80
2022-07-31T05:27:16.093Z,17.90
2022-07-31T05:30:07.310Z,18.00
2022-07-31T05:32:54.418Z,18.10
2022-07-31T05:35:43.464Z,18.20
2022-07-31T05:38:31.193Z,18.30
2022-07-31T05:41:38.350Z,18.50
2022-07-31T05:44:42.460Z,18.60
2022-07-31T05:47:40.148Z,18.70
2022-07-31T05:50:27.781Z,18.80
2022-07-31T05:53:15.987Z,19.00
2022-07-31T05:56:23.787Z,19.20
2022-07-31T05:59:12.093Z,19.50
2022-07-31T06:02:00.562Z,19.50
2022-07-31T06:04:50.352Z,19.80
2022-07-31T06:07:37.889Z,20.20
2022-07-31T06:10:25.722Z,20.60
2022-07-31T06:13:13.567Z,20.40
2022-07-31T06:16:00.923Z,21.00
2022-07-31T06:18:48.284Z,21.20
2022-07-31T06:21:36.834Z,21.50
2022-07-31T06:24:25.728Z,21.30
2022-07-31T06:27:21.441Z,20.80
2022-07-31T06:30:20.579Z,21.30
2022-07-31T06:33:08.891Z,21.90
2022-07-31T06:36:03.989Z,22.00
2022-07-31T06:39:03.340Z,22.30
2022-07-31T06:42:19.690Z,22.30
2022-07-31T06:45:50.730Z,22.00
2022-07-31T06:48:56.881Z,22.50
2022-07-31T06:51:43.745Z,22.70
2022-07-31T06:54:32.467Z,23.10
2022-07-31T06:57:20.038Z,23.70
2022-07-31T07:00:19.907Z,24.10
2022-07-31T07:03:14.644Z,24.30
2022-07-31T07:06:03.450Z,24.70
2022-07-31T07:08:51.074Z,24.20
2022-07-31T07:11:40.806Z,23.50
2022-07-31T07:14:27.855Z,23.40
2022-07-31T07:17:14.897Z,23.30
2022-07-31T07:20:02.268Z,23.20
2022-07-31T07:22:50.141Z,23.70
2022-07-31T07:25:54.145Z,24.50
2022-07-31T07:28:44.016Z,24.10
2022-07-31T07:31:31.397Z,24.50
2022-07-31T07:34:18.762Z,24.40
2022-07-31T07:37:07.242Z,25.20
2022-07-31T07:39:54.371Z,25.20
2022-07-31T07:42:41.846Z,25.20
2022-07-31T07:45:30.470Z,25.50
2022-07-31T07:48:18.240Z,25.50
2022-07-31T07:51:23.969Z,24.50
2022-07-31T07:54:15.190Z,24.40
2022-07-31T07:57:21.941Z,24.30
2022-07-31T08:00:28.166Z,25.10
2022-07-31T08:03:48.967Z,26.00
2022-07-31T08:06:29.030Z,26.40
2022-07-31T08:09:16.436Z,26.10
2022-07-31T08:12:22.222Z,26.10
2022-07-31T08:15:29.809Z,25.90
2022-07-31T08:18:47.363Z,26.30
2022-07-31T08:21:35.370Z,25.60
2022-07-31T08:24:22.451Z,25.70
2022-07-31T08:27:39.964Z,26.60
2022-07-31T08:30:30.700Z,26.00
2022-07-31T08:33:18.572Z,25.80
2022-07-31T08:36:14.808Z,25.90
2022-07-31T08:39:03.538Z,25.80
2022-07-31T08:42:10.709Z,26.70
2022-07-31T08:44:57.855Z,27.30
2022-07-31T08:47:50.577Z,27.50
2022-07-31T08:50:48.837Z,26.90
2022-07-31T08:54:02.699Z,26.20
2022-07-31T08:56:52.413Z,25.90
2022-07-31T08:59:42.054Z,26.70
2022-07-31T09:02:29.056Z,27.10
2022-07-31T09:05:42.996Z,26.00
2022-07-31T09:08:33.691Z,26.80
2022-07-31T09:11:22.282Z,26.20
2022-07-31T09:14:27.323Z,27.00
2022-07-31T09:17:15.892Z,26.60
2022-07-31T09:20:05.593Z,26.80
2022-07-31T09:23:05.453Z,27.00
2022-07-31T09:25:54.082Z,27.00
2022-07-31T09:28:44.283Z,27.60
2022-07-31T09:31:33.936Z,28.10
2022-07-31T09:34:40.429Z,28.50
2022-07-31T09:37:33.786Z,28.20
2022-07-31T09:40:55.355Z,27.80
2022-07-31T09:44:10.220Z,27.60
2022-07-31T09:46:58.135Z,27.20
2022-07-31T09:49:45.455Z,27.10
2022-07-31T09:52:33.807Z,27.40
2022-07-31T09:55:20.922Z,27.20
2022-07-31T09:58:09.643Z,26.90
2022-07-31T10:01:05.090Z,26.90
2022-07-31T10:03:54.355Z,27.50
2022-07-31T10:06:43.055Z,28.20
2022-07-31T10:09:33.531Z,27.80
2022-07-31T10:12:36.886Z,28.40
2022-07-31T10:15:26.068Z,28.40
2022-07-31T10:18:44.625Z,27.90
2022-07-31T10:21:57.281Z,27.00
2022-07-31T10:24:53.887Z,26.40
2022-07-31T10:27:41.918Z,27.90
2022-07-31T10:30:32.867Z,28.30
2022-07-31T10:33:43.013Z,28.70
2022-07-31T10:36:51.471Z,28.30
2022-07-31T10:40:11.847Z,28.70
2022-07-31T10:43:20.204Z,28.50
2022-07-31T10:46:28.531Z,27.60
2022-07-31T10:49:40.384Z,28.00
2022-07-31T10:52:48.091Z,27.90
2022-07-31T10:55:35.306Z,27.30
2022-07-31T10:58:50.364Z,27.10
2022-07-31T11:01:56.057Z,26.20
2022-07-31T11:05:14.316Z,26.90
2022-07-31T11:08:44.098Z,27.40
2022-07-31T11:11:51.486Z,27.10
2022-07-31T11:15:20.499Z,27.30
2022-07-31T11:18:32.535Z,26.40
2022-07-31T11:21:40.454Z,26.20
2022-07-31T11:24:29.174Z,26.90
2022-07-31T11:27:16.454Z,27.00
2022-07-31T11:30:12.397Z,26.70
2022-07-31T11:33:00.405Z,27.10
2022-07-31T11:35:47.535Z,26.60
2022-07-31T11:38:35.139Z,26.80
2022-07-31T11:41:29.334Z,26.70
2022-07-31T11:44:25.001Z,26.60
2022-07-31T11:48:09.657Z,26.90
2022-07-31T11:50:19.782Z,27.00
2022-07-31T11:53:07.588Z,27.30
2022-07-31T11:55:57.515Z,28.00
2022-07-31T11:58:49.870Z,28.30
2022-07-31T12:01:37.240Z,28.20
2022-07-31T12:04:28.366Z,28.10
2022-07-31T12:07:15.879Z,28.20
2022-07-31T12:10:03.950Z,27.90
2022-07-31T12:12:51.396Z,28.10
2022-07-31T12:15:40.027Z,27.30
2022-07-31T12:18:28.469Z,26.70
2022-07-31T12:21:16.453Z,26.30
2022-07-31T12:24:10.764Z,26.80
2022-07-31T12:26:59.324Z,27.00
2022-07-31T12:29:46.647Z,26.80
2022-07-31T12:32:35.467Z,27.00
2022-07-31T12:35:22.771Z,26.90
2022-07-31T12:38:30.200Z,27.00
2022-07-31T12:41:18.120Z,26.70
2022-07-31T12:44:13.162Z,26.20
2022-07-31T12:47:00.574Z,26.30
2022-07-31T12:49:49.182Z,26.20
2022-07-31T12:52:37.465Z,26.10
2022-07-31T12:55:24.647Z,26.30
2022-07-31T12:58:12.152Z,26.10
2022-07-31T13:00:59.353Z,26.10
2022-07-31T13:03:50.988Z,26.20
2022-07-31T13:06:39.983Z,26.20
2022-07-31T13:09:27.611Z,26.30
2022-07-31T13:12:14.714Z,26.80
2022-07-31T13:15:02.575Z,26.90
2022-07-31T13:17:50.595Z,27.20
2022-07-31T13:20:38.342Z,27.30
2022-07-31T13:23:27.158Z,27.20
2022-07-31T13:26:14.285Z,27.20
2022-07-31T13:29:01.381Z,27.60
2022-07-31T13:31:48.963Z,27.40
2022-07-31T13:34:36.295Z,27.40
2022-07-31T13:37:23.635Z,27.30
2022-07-31T13:40:12.509Z,27.30
2022-07-31T13:42:59.945Z,27.10
2022-07-31T13:45:47.271Z,27.30
2022-07-31T13:48:35.181Z,27.30
2022-07-31T13:51:24.067Z,27.50
2022-07-31T13:54:16.463Z,27.40
2022-07-31T13:57:06.016Z,27.20
2022-07-31T13:59:53.345Z,27.10
2022-07-31T14:02:41.302Z,27.40
2022-07-31T14:05:28.790Z,27.50
2022-07-31T14:08:32.962Z,27.50
2022-07-31T14:11:23.307Z,27.40
2022-07-31T14:14:12.064Z,27.70
2022-07-31T14:16:59.969Z,27.70
2022-07-31T14:19:47.323Z,27.70
2022-07-31T14:22:34.710Z,27.60
2022-07-31T14:25:21.968Z,27.70
2022-07-31T14:28:10.876Z,28.10
2022-07-31T14:30:59.448Z,28.10
2022-07-31T14:33:46.708Z,27.90
2022-07-31T14:36:34.010Z,28.00
2022-07-31T14:39:21.393Z,27.90
2022-07-31T14:42:08.797Z,27.70
2022-07-31T14:44:56.119Z,28.00
2022-07-31T14:47:46.364Z,27.80
2022-07-31T14:50:33.881Z,27.90
2022-07-31T14:53:20.885Z,27.70
2022-07-31T14:56:07.917Z,27.70
2022-07-31T14:58:57.239Z,27.80
2022-07-31T15:01:45.815Z,27.70
2022-07-31T15:04:34.521Z,27.60
2022-07-31T15:07:43.824Z,27.50
2022-07-31T15:10:29.853Z,27.60
2022-07-31T15:13:17.208Z,27.40
2022-07-31T15:16:04.993Z,27.30
2022-07-31T15:18:52.166Z,27.40
2022-07-31T15:21:40.713Z,27.20
2022-07-31T15:24:49.946Z,27.40
2022-07-31T15:27:37.513Z,27.50
2022-07-31T15:30:25.112Z,27.40
2022-07-31T15:33:12.153Z,27.30
2022-07-31T15:35:59.725Z,27.20
2022-07-31T15:38:48.773Z,27.20
2022-07-31T15:41:36.260Z,27.20
2022-07-31T15:44:23.433Z,27.30
2022-07-31T15:47:10.594Z,27.40
2022-07-31T15:49:57.863Z,27.50
2022-07-31T15:52:45.485Z,27.50
2022-07-31T15:55:34.042Z,27.70
2022-07-31T15:58:21.426Z,27.70
2022-07-31T16:01:08.771Z,27.90
2022-07-31T16:03:56.322Z,27.70
2022-07-31T16:06:44.147Z,27.40
2022-07-31T16:09:36.525Z,27.30
2022-07-31T16:12:45.373Z,27.40
2022-07-31T16:15:34.607Z,27.30
2022-07-31T16:18:22.594Z,27.20
2022-07-31T16:21:09.757Z,27.10
2022-07-31T16:23:56.743Z,26.90
2022-07-31T16:26:43.896Z,27.10
2022-07-31T16:30:00.951Z,27.10
2022-07-31T16:32:45.469Z,27.30
2022-07-31T16:35:32.915Z,27.60
2022-07-31T16:38:20.314Z,27.70
2022-07-31T16:41:07.843Z,27.50
2022-07-31T16:43:55.068Z,27.20
2022-07-31T16:46:43.899Z,27.10
2022-07-31T16:49:36.643Z,27.00
2022-07-31T16:52:24.447Z,26.80
2022-07-31T16:55:12.223Z,26.60
2022-07-31T16:57:59.434Z,26.50
2022-07-31T17:00:47.927Z,26.40
2022-07-31T17:04:00.164Z,26.40
2022-07-31T17:06:44.117Z,26.60
2022-07-31T17:09:32.799Z,26.70
2022-07-31T17:12:20.332Z,26.70
2022-07-31T17:15:08.592Z,26.80
2022-07-31T17:17:56.066Z,26.60
2022-07-31T17:20:47.096Z,26.50
2022-07-31T17:23:43.691Z,26.40
2022-07-31T17:26:31.782Z,26.40
2022-07-31T17:29:19.121Z,26.30
2022-07-31T17:32:06.896Z,26.30
2022-07-31T17:34:54.398Z,26.20
2022-07-31T17:37:43.145Z,26.20
2022-07-31T17:40:43.142Z,26.20
2022-07-31T17:46:48.285Z,26.10
2022-07-31T17:47:07.065Z,26.10
2022-07-31T17:49:36.061Z,26.10
2022-07-31T17:52:23.586Z,26.00
2022-07-31T17:55:12.501Z,25.90
2022-07-31T17:57:59.739Z,25.90
2022-07-31T18:00:47.440Z,25.90
2022-07-31T18:03:34.407Z,25.90
2022-07-31T18:06:21.744Z,25.80
2022-07-31T18:09:10.130Z,25.70
2022-07-31T18:11:59.015Z,25.70
2022-07-31T18:14:46.364Z,25.70
2022-07-31T18:17:34.718Z,25.70
2022-07-31T18:20:22.571Z,25.60
2022-07-31T18:23:10.209Z,25.60
2022-07-31T18:25:58.984Z,25.60
2022-07-31T18:28:47.592Z,25.50
2022-07-31T18:31:36.124Z,25.40
2022-07-31T18:34:23.330Z,25.40
2022-07-31T18:37:10.704Z,25.20
2022-07-31T18:39:58.935Z,25.20
2022-07-31T18:42:46.249Z,25.30
2022-07-31T18:45:34.775Z,25.30
2022-07-31T18:48:22.246Z,25.20
2022-07-31T18:51:09.371Z,25.00
2022-07-31T18:53:57.789Z,24.90
2022-07-31T18:56:45.152Z,24.80
2022-07-31T18:59:32.457Z,24.60
2022-07-31T19:02:22.061Z,24.60
2022-07-31T19:05:13.663Z,24.70
2022-07-31T19:08:08.400Z,24.60
2022-07-31T19:10:55.627Z,24.70
2022-07-31T19:13:43.003Z,24.60
2022-07-31T19:16:30.214Z,24.60
2022-07-31T19:19:19.049Z,24.60
2022-07-31T19:22:07.352Z,24.70
2022-07-31T19:24:55.233Z,24.70
2022-07-31T19:27:47.885Z,24.70
2022-07-31T19:30:36.526Z,24.60
2022-07-31T19:33:23.964Z,24.60
2022-07-31T19:36:12.716Z,24.60
2022-07-31T19:39:00.105Z,24.70
2022-07-31T19:42:11.453Z,24.60
2022-07-31T19:44:54.039Z,24.50
2022-07-31T19:47:43.090Z,24.60
2022-07-31T19:50:30.776Z,24.50
2022-07-31T19:53:19.225Z,24.50
2022-07-31T19:56:06.928Z,24.40
2022-07-31T19:58:54.067Z,24.00
2022-07-31T20:01:41.480Z,23.90
2022-07-31T20:04:28.750Z,24.00
2022-07-31T20:07:16.070Z,23.90
2022-07-31T20:10:06.046Z,23.80
2022-07-31T20:12:53.699Z,23.70
2022-07-31T20:15:52.214Z,23.70
2022-07-31T20:18:40.267Z,23.50
2022-07-31T20:21:27.716Z,23.60
2022-07-31T20:24:22.566Z,23.70
2022-07-31T20:27:11.330Z,23.80
2022-07-31T20:29:58.522Z,23.90
2022-07-31T20:32:48.521Z,23.90
2022-07-31T20:35:48.838Z,23.90
2022-07-31T20:38:37.089Z,23.80
2022-07-31T20:41:24.385Z,23.60
2022-07-31T20:44:13.118Z,23.50
2022-07-31T20:47:00.355Z,23.60
2022-07-31T20:49:47.646Z,23.70
2022-07-31T20:52:34.675Z,23.70
2022-07-31T20:55:22.254Z,23.70
2022-07-31T20:58:09.570Z,23.70
2022-07-31T21:00:58.244Z,23.70
2022-07-31T21:03:45.276Z,23.70
2022-07-31T21:06:32.891Z,23.60
2022-07-31T21:09:20.283Z,23.40
2022-07-31T21:12:08.687Z,23.20
2022-07-31T21:14:55.926Z,23.30
2022-07-31T21:17:44.656Z,23.40
2022-07-31T21:20:51.874Z,23.30
2022-07-31T21:23:39.118Z,23.30
2022-07-31T21:26:28.319Z,23.30
2022-07-31T21:29:15.961Z,23.20
2022-07-31T21:32:06.012Z,23.00
2022-07-31T21:34:55.419Z,23.10
2022-07-31T21:37:43.777Z,23.10
2022-07-31T21:40:35.944Z,23.20
2022-07-31T21:43:24.354Z,23.20
2022-07-31T21:46:15.269Z,23.10
2022-07-31T21:49:04.787Z,23.00
2022-07-31T21:51:53.956Z,23.00
2022-07-31T21:54:41.385Z,23.10
2022-07-31T21:57:28.819Z,23.00
2022-07-31T22:00:36.011Z,22.90
2022-07-31T22:03:25.333Z,22.80
2022-07-31T22:06:30.084Z,22.90
2022-07-31T22:09:19.084Z,23.00
2022-07-31T22:12:07.122Z,23.00
2022-07-31T22:14:54.702Z,22.80
2022-07-31T22:17:42.314Z,22.80
2022-07-31T22:20:29.977Z,22.90
2022-07-31T22:23:17.726Z,22.90
2022-07-31T22:26:06.613Z,23.00
2022-07-31T22:28:54.672Z,22.90
2022-07-31T22:31:49.759Z,22.90
2022-07-31T22:34:39.260Z,22.90
2022-07-31T22:37:28.041Z,23.00
2022-07-31T22:40:17.121Z,22.90
2022-07-31T22:44:10.482Z,22.90
2022-07-31T22:46:14.135Z,22.80
2022-07-31T22:49:03.076Z,22.80
2022-07-31T22:51:50.404Z,22.70
2022-07-31T22:54:37.558Z,22.60
2022-07-31T22:57:25.071Z,22.60
2022-07-31T23:00:15.834Z,22.50
2022-07-31T23:03:02.984Z,22.50
2022-07-31T23:06:03.491Z,22.40
2022-07-31T23:08:57.638Z,22.30
2022-07-31T23:11:45.069Z,22.40
2022-07-31T23:14:32.688Z,22.30
2022-07-31T23:17:22.888Z,22.20
2022-07-31T23:20:11.622Z,22.20
2022-07-31T23:22:58.977Z,22.10
2022-07-31T23:25:46.287Z,22.10
2022-07-31T23:28:33.620Z,22.00
2022-07-31T23:31:21.771Z,21.80
2022-07-31T23:34:10.635Z,21.80
2022-07-31T23:36:57.898Z,21.70
2022-07-31T23:39:45.195Z,21.60
2022-07-31T23:42:41.359Z,21.60
2022-07-31T23:45:28.615Z,21.60
2022-07-31T23:48:16.286Z,21.60
2022-07-31T23:51:05.501Z,21.60
2022-07-31T23:53:53.382Z,21.60
2022-07-31T23:56:41.657Z,21.50
2022-07-31T23:59:28.751Z,21.50
